METAR AND TAF INFORMATION
METAR FOR SKVP
ADDS - METARS form results

(1830 UTC 15 August 2018)
Data provider http://aviationweather.gov/adds/metars/
 
METAR text: SKVP 151800Z 02006KT 9999 FEW010 BKN200 28/22 A2991
Conditions at: SKVP (VALLEDUPAR/ALFON, CO) observed 1800 UTC 15 August 2018
Temperature: 28.0°C (82°F)
Dewpoint: 22.0°C (72°F) [RH = 70%]
Pressure (altimeter): 29.91 inches Hg (1013.0 mb)
Winds: from the NNE (20 degrees) at 7 MPH (6 knots; 3.1 m/s)
Visibility: 6 or more miles (10+ km)
Ceiling: 20000 feet AGL
Clouds: few clouds at 1000 feet AGL
broken clouds at 20000 feet AGL
Weather: no significant weather observed at this time

 AIRPORT MAP

 RUNWAY INFORMATION
Runway 02 Runway length 6890 ft Runway width 98 ft
Runway elevation 449 ft Runway displaced threshold 0 ft Runway heading 10
Runway 20 Runway length 6890 ft Runway width 98 ft
Runway elevation 483 ft Runway displaced threshold 0 ft Runway heading 190

 AIRPORT FREQUENCIES
Type RDO Name VALLEDUPAR Frequency 348.8 MHZ
Type TWR Name TWR Frequency 118 MHZ

 AIRPORT NEAR NAVIGATION AIDS
Type NDB Name Valledupar Frequency 325 KHZ
Type VOR-DME Name Valledupar Frequency 114600 KHZ



Powered by Heron Airways VA. All Rights Reserved © 2009 [v2.6.2]